Observations for BENSON RAF, United Kingdom (EGUB)

EGUB 221450Z AUTO 36006KT 9999 // NCD 13/03 Q1037   
EGUB 221350Z AUTO 35010KT 9999 // NCD 13/02 Q1037   
EGUB 221250Z AUTO 36011KT 9999 // NCD 12/05 Q1038   
EGUB 221150Z AUTO 01009KT 9999 // NCD 12/04 Q1038   
EGUB 221050Z AUTO 01012KT 9999 // NCD 12/05 Q1038   
EGUB 220950Z AUTO 35007KT 9999 // NCD 10/05 Q1038   
EGUB 220850Z AUTO 31002KT 9999 // NCD 08/05 Q1038   
EGUB 220750Z AUTO 00000KT 9999 // NCD 04/03 Q1037   
EGUB 220650Z AUTO 00000KT 9999 // NCD 00/M00 Q1036  
EGUB 220550Z AUTO 35002KT 9999 // NCD 01/00 Q1035   
EGUB 220450Z AUTO 00000KT 9999 // NCD 03/01 Q1035   
EGUB 220350Z AUTO 35005KT 9999 // SCT240/// 06/03 Q1034 
EGUB 220250Z AUTO 35009KT 9999 // FEW032/// SCT240/// 08/04 Q1034   
EGUB 220150Z AUTO 35007KT 9999 // BKN033/// 08/05 Q1033 
EGUB 220050Z AUTO 35009KT 9999 // OVC032/// 10/05 Q1033 
EGUB 212350Z AUTO 35011KT 9999 // BKN030/// BKN070/// 11/06 Q1032   
EGUB 212250Z AUTO 35011KT 9999 // FEW045/// SCT120/// 11/07 Q1031   
EGUB 212150Z AUTO 34011KT 9999 // BKN038/// SCT050/// 12/08 Q1031   
EGUB 212050Z AUTO 34011KT 9999 // FEW021/// SCT031/// BKN036/// 13/10 Q1030 
EGUB 211950Z AUTO 34011KT 9999 // FEW012/// SCT018/// BKN022/// 14/12 Q1029 
EGUB 211850Z AUTO 34005KT 9999 // BKN024/// 16/12 Q1028 
EGUB 211750Z AUTO 31003KT 9999 // BKN027/// 16/12 Q1027 
EGUB 211650Z AUTO 27006KT 9999 // SCT031/// 16/11 Q1027 
EGUB 211550Z AUTO 28006KT 9999 // NCD 18/11 Q1026   
EGUB 211450Z AUTO 24006KT 9999 // NCD 18/11 Q1026